^^
Peaceful Hills Weather Station Historical Data
 
Daily Summary for October 17, 2019 Units:  English    Metric   Both
Daily Weekly Monthly Yearly Custom
  Current: High: Low: Average:
Temperature: 42.8 °F 46.4 °F 42.8 °F 44.8 °F
Dew Point: 40.4 °F 43.6 °F 40.4 °F 42.2 °F
Humidity: 91% 91% 90% 91%
Wind Speed: 0mph 0mph 0mph 0mph
Wind Gust: 0mph 0mph - -
WindCalm - -
Pressure: 30.12 in 30.12 in 30.09 in -
Precipitation: 0.00 in      
Historical Graphs
 
 
Tabular Data for October 17, 2019
Time Temperature Dew Point Pressure Wind Wind Speed Wind Gust Humidity Rainfall Rate (Hourly)
00:04 46.4 °F 43.6 °F 30.11 in Calm     90% 0.00 in
00:09 46.3 °F 43.5 °F 30.11 in Calm     90% 0.00 in
00:14 46.2 °F 43.4 °F 30.10 in Calm     90% 0.00 in
00:19 46.1 °F 43.3 °F 30.10 in Calm     90% 0.00 in
00:24 46.1 °F 43.3 °F 30.10 in Calm     90% 0.00 in
00:29 46 °F 43.2 °F 30.10 in Calm     90% 0.00 in
00:34 46 °F 43.2 °F 30.09 in Calm     90% 0.00 in
00:39 45.9 °F 43.1 °F 30.09 in Calm     90% 0.00 in
00:44 45.8 °F 43 °F 30.09 in Calm     90% 0.00 in
00:49 45.8 °F 43 °F 30.09 in Calm     90% 0.00 in
00:54 45.8 °F 43.3 °F 30.09 in Calm     91% 0.00 in
00:59 45.7 °F 43.1 °F 30.09 in Calm     90.6% 0.00 in
01:04 45.6 °F 42.8 °F 30.10 in Calm     90% 0.00 in
01:09 45.5 °F 42.7 °F 30.09 in Calm     90% 0.00 in
01:14 45.5 °F 42.7 °F 30.10 in Calm     90% 0.00 in
01:19 45.4 °F 42.7 °F 30.10 in Calm     90.2% 0.00 in
01:24 45.4 °F 42.9 °F 30.10 in Calm     91% 0.00 in
01:29 45.4 °F 42.9 °F 30.10 in Calm     91% 0.00 in
01:34 45.3 °F 42.8 °F 30.10 in Calm     91% 0.00 in
01:39 45.2 °F 42.7 °F 30.10 in Calm     91% 0.00 in
01:44 45.2 °F 42.5 °F 30.10 in Calm     90.6% 0.00 in
01:49 45 °F 42.2 °F 30.10 in Calm     90% 0.00 in
01:54 44.8 °F 42.2 °F 30.10 in Calm     90.6% 0.00 in
01:59 44.7 °F 42.2 °F 30.11 in Calm     91% 0.00 in
02:04 44.7 °F 42.2 °F 30.11 in Calm     91% 0.00 in
02:09 44.6 °F 42.1 °F 30.11 in Calm     91% 0.00 in
02:14 44.5 °F 42 °F 30.12 in Calm     91% 0.00 in
02:19 44.5 °F 42 °F 30.12 in Calm     91% 0.00 in
02:24 44.4 °F 41.9 °F 30.12 in Calm     91% 0.00 in
02:29 44.3 °F 41.8 °F 30.11 in Calm     91% 0.00 in
02:34 44.3 °F 41.8 °F 30.11 in Calm     91% 0.00 in
02:39 44.2 °F 41.7 °F 30.11 in Calm     91% 0.00 in
02:44 44.1 °F 41.6 °F 30.11 in Calm     91% 0.00 in
02:49 43.9 °F 41.4 °F 30.11 in Calm     91% 0.00 in
02:54 43.8 °F 41.3 °F 30.11 in Calm     91% 0.00 in
02:59 43.7 °F 41.2 °F 30.12 in Calm     91% 0.00 in
03:04 43.6 °F 41.1 °F 30.12 in Calm     91% 0.00 in
03:09 43.5 °F 41 °F 30.12 in Calm     91% 0.00 in
03:14 43.4 °F 40.9 °F 30.12 in Calm     91% 0.00 in
03:19 43.3 °F 40.8 °F 30.12 in Calm     91% 0.00 in
03:24 43.2 °F 40.8 °F 30.12 in Calm     91% 0.00 in
03:29 43.1 °F 40.7 °F 30.12 in Calm     91% 0.00 in
03:34 42.9 °F 40.5 °F 30.12 in Calm     91% 0.00 in
03:39 42.8 °F 40.4 °F 30.12 in Calm     91% 0.00 in
Hot Springs, Arkansas, USA
Compliments of Weather Underground - 4 mb